Time;durP1;ratioP1;P1;durP2;ratioP2;P2;SDS_P1;SDS_P2;PMS_P1;PMS_P2;Temp;Humidity;BMP_temperature;BMP_pressure;BME280_temperature;BME280_humidity;BME280_pressure;Samples;Min_cycle;Max_cycle;Signal;HPM_P1;HPM_P2
2022/02/02 00:01:39;;;;;;;2.50;1.70;;;;;;;;;;5011767;28;20050;-65
2022/02/02 00:04:08;;;;;;;8.55;2.00;;;;;;;;;;5012708;28;20495;-65
2022/02/02 00:06:43;;;;;;;5.40;2.70;;;;;;;;;;5012764;28;20077;-64
2022/02/02 00:09:14;;;;;;;5.93;2.78;;;;;;;;;;5012350;28;20058;-64
2022/02/02 00:17:16;;;;;;;4.43;1.92;;;;;;;;;;5012715;28;20049;-64
2022/02/02 00:19:55;;;;;;;4.38;2.50;;;;;;;;;;5013332;28;20153;-65
2022/02/02 00:22:27;;;;;;;9.23;2.67;;;;;;;;;;5013222;28;20096;-65
2022/02/02 00:25:05;;;;;;;3.40;1.77;;;;;;;;;;5012238;28;20053;-64
2022/02/02 00:27:32;;;;;;;6.35;2.38;;;;;;;;;;5012344;28;20108;-64
2022/02/02 00:30:02;;;;;;;4.90;1.95;;;;;;;;;;5012214;28;20504;-65
2022/02/02 00:34:55;;;;;;;4.25;1.60;;;;;;;;;;5012341;28;20057;-65
2022/02/02 00:37:22;;;;;;;3.08;1.55;;;;;;;;;;5011114;28;20066;-64
2022/02/02 00:39:49;;;;;;;4.00;1.90;;;;;;;;;;5011934;28;20134;-65
2022/02/02 00:42:16;;;;;;;3.10;1.50;;;;;;;;;;5010962;28;20046;-65
2022/02/02 00:44:47;;;;;;;4.60;1.55;;;;;;;;;;5010750;28;20062;-64
2022/02/02 00:47:22;;;;;;;3.80;1.60;;;;;;;;;;5012054;28;20053;-64
2022/02/02 00:49:49;;;;;;;6.25;1.80;;;;;;;;;;4980593;28;20100;-65
2022/02/02 00:52:16;;;;;;;2.85;1.27;;;;;;;;;;5011023;28;20092;-64
2022/02/02 00:54:43;;;;;;;4.18;2.20;;;;;;;;;;5011731;28;20054;-64
2022/02/02 00:57:10;;;;;;;4.63;1.65;;;;;;;;;;4994763;28;20116;-65
2022/02/02 00:59:36;;;;;;;2.88;1.80;;;;;;;;;;5010760;28;20489;-65
2022/02/02 01:02:03;;;;;;;6.07;2.20;;;;;;;;;;4978453;28;20532;-64
2022/02/02 01:04:30;;;;;;;3.50;1.63;;;;;;;;;;5010410;28;20519;-64
2022/02/02 01:09:40;;;;;;;3.03;2.10;;;;;;;;;;5011691;28;20050;-66
2022/02/02 01:28:27;;;;;;;4.65;2.97;;;;;;;;;;4996879;28;20054;-65
2022/02/02 01:30:55;;;;;;;5.93;2.20;;;;;;;;;;4994125;28;20636;-64
2022/02/02 01:33:21;;;;;;;2.95;1.88;;;;;;;;;;5010392;28;20042;-64
2022/02/02 01:35:49;;;;;;;4.03;1.88;;;;;;;;;;5011488;28;20069;-65
2022/02/02 01:38:16;;;;;;;6.20;1.85;;;;;;;;;;4994227;28;20556;-65
2022/02/02 01:40:49;;;;;;;3.00;2.00;;;;;;;;;;5011328;28;20053;-67
2022/02/02 01:43:21;;;;;;;3.88;1.80;;;;;;;;;;5011425;28;20049;-65
2022/02/02 01:45:52;;;;;;;4.43;2.03;;;;;;;;;;5011411;28;20100;-66
2022/02/02 01:48:30;;;;;;;5.07;2.03;;;;;;;;;;5011322;28;20050;-66
2022/02/02 01:56:08;;;;;;;6.70;1.25;;;;;;;;;;5010440;28;20197;-66
2022/02/02 02:01:02;;;;;;;5.53;1.38;;;;;;;;;;5011010;28;20504;-65
2022/02/02 02:03:29;;;;;;;4.70;1.05;;;;;;;;;;5010838;28;20046;-64
2022/02/02 02:05:56;;;;;;;7.65;1.40;;;;;;;;;;5014778;28;20563;-64
2022/02/02 02:08:22;;;;;;;4.70;1.13;;;;;;;;;;5014790;28;20050;-65
2022/02/02 02:10:49;;;;;;;5.00;1.38;;;;;;;;;;5014529;28;20116;-65
2022/02/02 02:16:11;;;;;;;8.10;1.42;;;;;;;;;;4973116;28;20051;-66
2022/02/02 02:18:38;;;;;;;6.90;1.58;;;;;;;;;;5007305;28;20046;-66
2022/02/02 02:21:10;;;;;;;9.95;1.63;;;;;;;;;;5022246;28;20085;-66
2022/02/02 02:23:37;;;;;;;3.97;1.70;;;;;;;;;;5006290;28;20073;-65
2022/02/02 02:26:05;;;;;;;2.72;1.38;;;;;;;;;;5006436;28;20054;-65
2022/02/02 02:31:14;;;;;;;5.82;1.60;;;;;;;;;;4993676;28;20547;-64
2022/02/02 03:50:53;;;;;;;11.23;3.35;;;;;;;;;;5012837;28;20086;-66
2022/02/02 03:58:39;;;;;;;10.77;3.10;;;;;;;;;;5065710;28;20049;-66
2022/02/02 04:04:20;;;;;;;14.45;3.30;;;;;;;;;;5049943;28;20454;-66
2022/02/02 04:07:02;;;;;;;8.75;2.80;;;;;;;;;;5034524;28;20057;-67
2022/02/02 04:09:33;;;;;;;10.60;2.43;;;;;;;;;;5032422;28;20051;-67
2022/02/02 04:12:12;;;;;;;13.38;3.50;;;;;;;;;;5032276;28;20111;-65
2022/02/02 04:55:30;;;;;;;9.85;2.33;;;;;;;;;;5031789;28;20107;-66
2022/02/02 05:52:30;;;;;;;12.95;3.55;;;;;;;;;;5053724;28;20107;-65
2022/02/02 05:54:56;;;;;;;19.30;3.55;;;;;;;;;;5054950;28;20102;-66
2022/02/02 05:57:23;;;;;;;12.60;3.20;;;;;;;;;;5054988;28;20053;-66
2022/02/02 05:59:50;;;;;;;8.52;2.40;;;;;;;;;;5044844;28;20057;-66
2022/02/02 06:02:16;;;;;;;10.25;2.65;;;;;;;;;;5033705;28;20057;-65
2022/02/02 06:04:45;;;;;;;14.10;2.72;;;;;;;;;;5033327;28;20064;-66
2022/02/02 06:07:13;;;;;;;10.85;3.30;;;;;;;;;;5034791;28;20060;-65
2022/02/02 06:09:43;;;;;;;15.00;2.28;;;;;;;;;;5034356;28;20467;-66
2022/02/02 06:12:10;;;;;;;13.65;3.28;;;;;;;;;;5034754;28;20127;-64
2022/02/02 06:14:38;;;;;;;15.27;3.30;;;;;;;;;;5034437;28;20489;-66
2022/02/02 06:17:07;;;;;;;12.48;2.38;;;;;;;;;;5034515;28;20562;-65
2022/02/02 06:19:37;;;;;;;15.32;2.35;;;;;;;;;;5034491;28;20207;-68
2022/02/02 06:22:13;;;;;;;16.00;3.58;;;;;;;;;;5034603;28;20467;-64
2022/02/02 06:24:52;;;;;;;13.18;2.30;;;;;;;;;;5034241;28;20042;-65
2022/02/02 06:27:27;;;;;;;16.90;2.63;;;;;;;;;;5034487;28;20050;-66
2022/02/02 06:30:08;;;;;;;13.75;3.10;;;;;;;;;;5040689;28;20053;-64
2022/02/02 06:32:52;;;;;;;14.40;2.55;;;;;;;;;;5054698;28;20048;-66
2022/02/02 06:35:20;;;;;;;15.43;3.28;;;;;;;;;;5054358;28;20045;-65
2022/02/02 06:37:48;;;;;;;13.45;3.22;;;;;;;;;;5054141;28;20052;-66
2022/02/02 06:40:16;;;;;;;13.25;3.42;;;;;;;;;;5053994;28;20049;-65
2022/02/02 06:42:43;;;;;;;19.83;3.10;;;;;;;;;;5042004;28;20049;-66
2022/02/02 06:45:11;;;;;;;13.55;2.40;;;;;;;;;;5049749;28;20106;-65
2022/02/02 06:47:39;;;;;;;13.75;3.65;;;;;;;;;;5053735;28;20064;-65
2022/02/02 06:50:11;;;;;;;13.65;3.22;;;;;;;;;;5052496;28;20057;-65
2022/02/02 06:53:02;;;;;;;10.60;2.30;;;;;;;;;;5053617;28;20079;-65
2022/02/02 06:55:39;;;;;;;12.45;2.78;;;;;;;;;;5052953;28;20049;-66
2022/02/02 06:58:29;;;;;;;14.30;3.13;;;;;;;;;;5037341;28;20122;-65
2022/02/02 07:01:09;;;;;;;17.23;2.88;;;;;;;;;;5013843;28;20062;-67
2022/02/02 07:03:58;;;;;;;14.10;3.15;;;;;;;;;;5012666;28;20488;-66
2022/02/02 07:06:56;;;;;;;12.57;3.08;;;;;;;;;;5013915;28;20068;-66
2022/02/02 07:09:48;;;;;;;17.30;3.17;;;;;;;;;;5029410;28;20107;-65
2022/02/02 07:12:26;;;;;;;14.00;2.85;;;;;;;;;;5039587;28;20106;-64
2022/02/02 07:17:40;;;;;;;12.63;2.95;;;;;;;;;;5052025;28;20056;-66
2022/02/02 07:20:22;;;;;;;12.98;3.25;;;;;;;;;;5050101;28;20182;-65
2022/02/02 07:23:16;;;;;;;13.20;3.10;;;;;;;;;;5049675;28;20491;-65
2022/02/02 07:28:58;;;;;;;8.27;3.08;;;;;;;;;;5031100;28;20387;-66
2022/02/02 07:32:04;;;;;;;12.13;2.92;;;;;;;;;;5030680;28;20061;-66
2022/02/02 07:34:33;;;;;;;14.27;2.95;;;;;;;;;;5016097;28;20041;-66
2022/02/02 07:37:03;;;;;;;17.02;3.13;;;;;;;;;;5034480;28;20045;-65
2022/02/02 07:39:29;;;;;;;18.60;3.30;;;;;;;;;;5009975;28;20054;-65
2022/02/02 07:42:00;;;;;;;13.77;3.00;;;;;;;;;;5009655;28;20438;-65
2022/02/02 07:44:28;;;;;;;11.93;2.95;;;;;;;;;;5009341;28;20042;-66
2022/02/02 07:46:56;;;;;;;8.85;2.55;;;;;;;;;;5010973;28;20504;-66
2022/02/02 07:49:33;;;;;;;9.90;2.67;;;;;;;;;;5010049;28;20464;-66
2022/02/02 07:52:01;;;;;;;14.93;3.55;;;;;;;;;;5033061;28;20573;-65
2022/02/02 07:54:33;;;;;;;7.70;2.67;;;;;;;;;;5050672;28;20525;-66
2022/02/02 07:57:18;;;;;;;10.20;3.05;;;;;;;;;;5050239;28;20084;-66
2022/02/02 08:02:19;;;;;;;11.63;2.67;;;;;;;;;;5049149;28;20053;-65
2022/02/02 08:04:52;;;;;;;18.20;3.40;;;;;;;;;;5050147;28;20421;-66
2022/02/02 08:07:25;;;;;;;12.57;2.75;;;;;;;;;;5049853;28;20049;-66
2022/02/02 08:10:06;;;;;;;13.65;2.67;;;;;;;;;;5025111;28;20057;-66
2022/02/02 08:12:43;;;;;;;10.77;2.95;;;;;;;;;;5026853;28;20420;-67
2022/02/02 08:15:11;;;;;;;10.73;3.22;;;;;;;;;;5027144;28;20037;-67
2022/02/02 08:17:38;;;;;;;11.48;3.35;;;;;;;;;;5028391;28;20065;-67
2022/02/02 08:20:06;;;;;;;15.75;2.97;;;;;;;;;;5028604;28;20045;-67
2022/02/02 08:22:33;;;;;;;16.02;3.75;;;;;;;;;;5049401;28;20056;-66
2022/02/02 08:24:59;;;;;;;13.40;3.28;;;;;;;;;;5049977;28;20080;-67
2022/02/02 08:27:26;;;;;;;20.15;3.70;;;;;;;;;;5050125;28;20056;-67
2022/02/02 08:29:53;;;;;;;15.43;3.10;;;;;;;;;;5031044;28;20080;-65
2022/02/02 08:32:20;;;;;;;16.35;3.45;;;;;;;;;;5029898;28;20046;-66
2022/02/02 08:34:50;;;;;;;14.95;3.10;;;;;;;;;;5027566;28;20046;-69
2022/02/02 08:37:17;;;;;;;14.18;3.25;;;;;;;;;;5025381;28;20115;-66
2022/02/02 08:42:14;;;;;;;13.18;2.95;;;;;;;;;;5028462;28;20046;-67
2022/02/02 08:47:33;;;;;;;14.30;2.78;;;;;;;;;;5023315;28;20488;-70
2022/02/02 08:50:02;;;;;;;14.93;3.08;;;;;;;;;;5026817;28;20061;-71
2022/02/02 08:52:45;;;;;;;12.00;2.92;;;;;;;;;;5028130;28;20096;-72
2022/02/02 08:55:55;;;;;;;11.57;3.03;;;;;;;;;;5027682;28;20076;-72
2022/02/02 08:58:23;;;;;;;9.20;2.95;;;;;;;;;;5025633;28;20416;-71
2022/02/02 09:00:52;;;;;;;9.27;3.17;;;;;;;;;;5028523;28;20103;-69
2022/02/02 09:06:04;;;;;;;8.02;2.50;;;;;;;;;;5014153;28;20464;-70
2022/02/02 09:08:32;;;;;;;10.57;3.95;;;;;;;;;;5053063;28;20379;-71
2022/02/02 09:35:43;;;;;;;13.55;3.58;;;;;;;;;;5048498;28;20052;-69
2022/02/02 09:38:11;;;;;;;20.23;3.58;;;;;;;;;;5051376;28;20079;-70
2022/02/02 09:43:29;;;;;;;16.80;3.17;;;;;;;;;;5045916;28;20084;-67
2022/02/02 09:46:03;;;;;;;17.08;3.53;;;;;;;;;;5054545;28;20086;-70
2022/02/02 09:48:40;;;;;;;14.73;3.97;;;;;;;;;;5062125;23;20041;-69
2022/02/02 09:51:11;;;;;;;11.63;3.15;;;;;;;;;;5041938;28;20135;-66
2022/02/02 09:53:51;;;;;;;18.13;3.35;;;;;;;;;;5043502;28;20076;-67
2022/02/02 09:59:21;;;;;;;15.07;3.47;;;;;;;;;;5030416;28;20061;-66
2022/02/02 10:05:15;;;;;;;15.18;3.20;;;;;;;;;;5031319;28;20054;-66
2022/02/02 10:13:20;;;;;;;11.85;2.25;;;;;;;;;;5020524;28;20052;-67
2022/02/02 10:15:58;;;;;;;17.00;3.80;;;;;;;;;;5021745;28;20049;-66
2022/02/02 10:18:34;;;;;;;11.43;2.83;;;;;;;;;;5019725;28;20050;-66
2022/02/02 10:21:02;;;;;;;13.93;2.72;;;;;;;;;;5022248;28;20049;-66
2022/02/02 10:23:34;;;;;;;10.30;2.40;;;;;;;;;;5021502;28;20041;-66
2022/02/02 10:26:18;;;;;;;18.73;3.42;;;;;;;;;;5019154;28;20038;-66
2022/02/02 10:28:47;;;;;;;31.05;3.80;;;;;;;;;;5021417;28;20060;-66
2022/02/02 10:31:14;;;;;;;12.25;2.38;;;;;;;;;;5022348;28;20045;-66
2022/02/02 10:33:41;;;;;;;11.63;2.75;;;;;;;;;;5019315;28;20058;-66
2022/02/02 10:36:22;;;;;;;14.02;2.95;;;;;;;;;;5021514;28;20046;-67
2022/02/02 10:39:07;;;;;;;11.68;3.22;;;;;;;;;;5019716;28;20050;-67
2022/02/02 10:41:59;;;;;;;13.77;3.03;;;;;;;;;;5019573;28;20427;-66
2022/02/02 10:58:05;;;;;;;13.27;2.60;;;;;;;;;;5023388;28;20057;-66
2022/02/02 12:27:48;;;;;;;16.17;4.47;;;;;;;;;;5006856;28;20116;-71
2022/02/02 12:45:02;;;;;;;14.50;4.18;;;;;;;;;;5000272;28;20050;-71
2022/02/02 12:57:39;;;;;;;15.25;2.95;;;;;;;;;;5009075;28;20057;-70
2022/02/02 13:00:10;;;;;;;14.80;3.50;;;;;;;;;;5009727;28;20053;-68
2022/02/02 13:02:38;;;;;;;12.73;3.25;;;;;;;;;;5010245;28;20053;-69
2022/02/02 13:05:07;;;;;;;12.20;3.20;;;;;;;;;;5009568;28;20053;-70
2022/02/02 13:07:34;;;;;;;13.45;3.25;;;;;;;;;;5005417;28;20112;-73
2022/02/02 13:10:04;;;;;;;12.13;3.42;;;;;;;;;;5006941;28;20102;-74
2022/02/02 13:12:42;;;;;;;15.43;3.30;;;;;;;;;;4990813;28;20467;-70
2022/02/02 13:17:59;;;;;;;14.80;3.20;;;;;;;;;;5008437;28;20050;-71
2022/02/02 13:23:39;;;;;;;12.65;3.25;;;;;;;;;;5006332;28;20050;-68
2022/02/02 13:26:20;;;;;;;14.32;3.67;;;;;;;;;;5006561;28;20058;-68
2022/02/02 13:29:02;;;;;;;12.25;3.35;;;;;;;;;;5008085;28;20046;-68
2022/02/02 13:31:42;;;;;;;17.23;2.90;;;;;;;;;;5006530;28;20119;-70
2022/02/02 13:51:06;;;;;;;19.45;4.18;;;;;;;;;;5004234;28;20053;-69
2022/02/02 14:04:26;;;;;;;15.10;3.50;;;;;;;;;;5010454;28;20501;-69
2022/02/02 14:07:09;;;;;;;12.68;4.50;;;;;;;;;;5010886;28;20088;-69
2022/02/02 14:31:34;;;;;;;7.93;3.17;;;;;;;;;;5011088;28;20054;-69
2022/02/02 14:34:20;;;;;;;11.73;3.70;;;;;;;;;;5011004;28;20049;-69
2022/02/02 14:36:47;;;;;;;12.65;3.30;;;;;;;;;;5012734;28;20073;-69
2022/02/02 14:39:22;;;;;;;14.30;3.50;;;;;;;;;;5013093;28;20049;-69
2022/02/02 14:41:54;;;;;;;11.75;2.85;;;;;;;;;;5012172;28;20132;-71
2022/02/02 14:44:27;;;;;;;14.93;2.72;;;;;;;;;;5009874;28;20049;-71
2022/02/02 14:47:20;;;;;;;13.67;3.87;;;;;;;;;;5009682;28;20197;-69
2022/02/02 14:49:55;;;;;;;13.52;3.60;;;;;;;;;;5012690;28;20096;-69
2022/02/02 15:06:07;;;;;;;12.10;3.60;;;;;;;;;;5012256;28;20140;-69
2022/02/02 15:09:35;;;;;;;18.75;4.88;;;;;;;;;;5009914;28;20053;-69
2022/02/02 15:16:51;;;;;;;16.17;3.95;;;;;;;;;;5010150;28;20539;-70
2022/02/02 15:23:56;;;;;;;15.45;3.10;;;;;;;;;;5010792;28;20049;-70
2022/02/02 15:28:17;;;;;;;10.38;2.67;;;;;;;;;;5011910;28;20045;-70
2022/02/02 15:30:54;;;;;;;12.20;4.53;;;;;;;;;;5009784;28;20115;-70
2022/02/02 15:33:25;;;;;;;10.27;3.22;;;;;;;;;;5012397;28;20054;-70
2022/02/02 15:36:08;;;;;;;12.65;3.38;;;;;;;;;;5012197;28;20096;-70
2022/02/02 15:38:37;;;;;;;9.17;2.60;;;;;;;;;;5008149;28;20053;-70
2022/02/02 15:41:12;;;;;;;12.90;2.97;;;;;;;;;;5007733;28;20092;-69
2022/02/02 15:44:52;;;;;;;9.48;2.55;;;;;;;;;;5009334;28;20057;-70
2022/02/02 16:05:12;;;;;;;7.45;3.25;;;;;;;;;;5009306;28;20091;-70
2022/02/02 16:07:40;;;;;;;7.28;3.65;;;;;;;;;;5008731;28;20053;-70
2022/02/02 16:10:13;;;;;;;10.15;2.88;;;;;;;;;;5009055;28;20151;-70
2022/02/02 16:12:44;;;;;;;6.43;2.42;;;;;;;;;;5009304;28;20778;-67
2022/02/02 16:39:05;;;;;;;6.40;3.00;;;;;;;;;;5006353;28;20420;-73
2022/02/02 16:44:21;;;;;;;9.05;2.88;;;;;;;;;;5005381;28;20574;-78
2022/02/02 16:46:52;;;;;;;7.65;3.28;;;;;;;;;;4976727;28;20137;-74
2022/02/02 16:49:20;;;;;;;9.57;3.72;;;;;;;;;;5009861;28;20100;-73
2022/02/02 16:51:47;;;;;;;5.32;3.20;;;;;;;;;;5010031;28;20061;-74
2022/02/02 16:54:22;;;;;;;5.40;2.88;;;;;;;;;;4975891;28;20145;-76
2022/02/02 17:40:05;;;;;;;9.88;3.33;;;;;;;;;;5013093;28;20492;-68
2022/02/02 18:12:53;;;;;;;9.30;5.85;;;;;;;;;;5009023;28;20135;-68
2022/02/02 18:20:53;;;;;;;5.53;4.25;;;;;;;;;;5011361;28;20077;-67
2022/02/02 18:23:30;;;;;;;6.97;4.05;;;;;;;;;;5011216;28;20142;-69
2022/02/02 18:36:14;;;;;;;6.10;5.50;;;;;;;;;;5005887;28;20073;-69
2022/02/02 18:42:57;;;;;;;9.00;6.25;;;;;;;;;;5009569;28;20378;-71
2022/02/02 18:45:17;;;;;;;10.73;6.85;;;;;;;;;;5010382;28;20145;-72
2022/02/02 19:39:58;;;;;;;13.60;7.00;;;;;;;;;;4967253;28;20450;-70
2022/02/02 20:01:51;;;;;;;10.95;8.02;;;;;;;;;;5006720;28;20050;-69
2022/02/02 20:12:14;;;;;;;16.85;10.60;;;;;;;;;;5006703;28;20084;-70
2022/02/02 20:14:41;;;;;;;15.05;9.57;;;;;;;;;;5009010;28;20463;-70
2022/02/02 20:17:15;;;;;;;14.27;8.90;;;;;;;;;;5009950;28;20097;-70
2022/02/02 20:19:45;;;;;;;14.88;9.18;;;;;;;;;;5008371;28;20128;-70
2022/02/02 20:22:15;;;;;;;16.15;9.52;;;;;;;;;;5008552;28;20428;-70
2022/02/02 20:24:51;;;;;;;14.13;9.32;;;;;;;;;;5003933;28;20053;-69
2022/02/02 20:27:18;;;;;;;14.13;8.35;;;;;;;;;;5009229;28;20041;-70
2022/02/02 20:29:44;;;;;;;11.18;7.75;;;;;;;;;;5007982;28;20132;-70
2022/02/02 20:32:11;;;;;;;11.95;8.35;;;;;;;;;;5008021;28;20053;-70
2022/02/02 20:34:37;;;;;;;12.48;8.68;;;;;;;;;;5008089;28;20111;-70
2022/02/02 20:37:04;;;;;;;11.85;8.65;;;;;;;;;;5009167;28;20308;-70
2022/02/02 20:39:52;;;;;;;11.75;8.50;;;;;;;;;;5008816;28;20041;-70
2022/02/02 20:42:28;;;;;;;11.82;7.60;;;;;;;;;;5007003;28;20104;-69
2022/02/02 21:01:36;;;;;;;9.55;6.53;;;;;;;;;;5007753;28;20111;-70
2022/02/02 21:06:27;;;;;;;11.23;7.35;;;;;;;;;;5006941;28;20050;-67
2022/02/02 21:09:07;;;;;;;10.10;7.38;;;;;;;;;;5007853;28;20049;-69
2022/02/02 21:14:10;;;;;;;10.13;6.63;;;;;;;;;;5007181;28;20261;-67
2022/02/02 21:16:40;;;;;;;10.75;7.20;;;;;;;;;;5010766;28;20050;-66
2022/02/02 21:19:09;;;;;;;10.82;6.88;;;;;;;;;;5009898;28;20057;-67
2022/02/02 21:21:46;;;;;;;10.85;6.85;;;;;;;;;;5010502;28;20062;-67
2022/02/02 21:29:25;;;;;;;9.90;6.97;;;;;;;;;;5009640;28;20104;-67
2022/02/02 21:31:52;;;;;;;10.23;6.85;;;;;;;;;;5007869;28;20046;-71
2022/02/02 21:34:20;;;;;;;6.90;6.13;;;;;;;;;;4991330;28;20050;-69
2022/02/02 21:36:47;;;;;;;8.05;6.60;;;;;;;;;;4992114;28;20101;-69
2022/02/02 21:39:22;;;;;;;8.32;6.03;;;;;;;;;;4994586;28;20050;-69
2022/02/02 21:41:51;;;;;;;7.68;5.60;;;;;;;;;;4991892;28;20054;-69
2022/02/02 21:44:19;;;;;;;8.70;5.80;;;;;;;;;;4994455;28;20057;-69
2022/02/02 21:46:45;;;;;;;10.13;6.35;;;;;;;;;;5009763;28;20058;-69
2022/02/02 21:49:20;;;;;;;11.20;6.60;;;;;;;;;;5011223;28;20046;-69
2022/02/02 21:52:09;;;;;;;10.60;7.18;;;;;;;;;;5011503;28;20053;-69
2022/02/02 21:54:36;;;;;;;14.55;7.43;;;;;;;;;;5001197;28;20073;-69
2022/02/02 21:57:04;;;;;;;11.75;6.97;;;;;;;;;;4991892;28;20098;-69
2022/02/02 21:59:32;;;;;;;12.05;6.38;;;;;;;;;;4992535;28;20085;-70
2022/02/02 22:01:58;;;;;;;12.50;7.03;;;;;;;;;;4991640;28;20054;-70
2022/02/02 22:04:25;;;;;;;9.88;6.75;;;;;;;;;;4991790;28;20465;-69
2022/02/02 22:06:51;;;;;;;8.90;6.40;;;;;;;;;;4991501;28;20047;-69
2022/02/02 22:09:18;;;;;;;9.45;6.15;;;;;;;;;;4991666;28;20058;-70
2022/02/02 22:11:44;;;;;;;7.13;5.40;;;;;;;;;;4991679;28;20124;-69
2022/02/02 22:14:16;;;;;;;9.20;5.95;;;;;;;;;;4996884;28;20053;-69
2022/02/02 22:16:46;;;;;;;11.25;6.50;;;;;;;;;;5011115;28;20111;-69
2022/02/02 22:19:13;;;;;;;7.72;5.72;;;;;;;;;;5011233;28;20108;-69
2022/02/02 22:21:40;;;;;;;11.55;6.43;;;;;;;;;;5013734;28;20100;-69
2022/02/02 22:24:13;;;;;;;11.23;6.03;;;;;;;;;;5008665;28;20053;-69
2022/02/02 22:26:39;;;;;;;8.48;5.30;;;;;;;;;;4994879;28;20429;-69
2022/02/02 22:29:07;;;;;;;8.75;5.60;;;;;;;;;;4994946;28;20096;-69
2022/02/02 22:31:34;;;;;;;8.02;5.50;;;;;;;;;;4993927;28;20050;-70
2022/02/02 22:34:00;;;;;;;9.15;6.60;;;;;;;;;;4998794;28;20435;-69
2022/02/02 22:36:27;;;;;;;13.52;8.15;;;;;;;;;;5014550;28;20076;-69
2022/02/02 22:38:53;;;;;;;10.38;6.63;;;;;;;;;;5014428;28;20050;-69
2022/02/02 22:41:20;;;;;;;9.73;6.70;;;;;;;;;;5014506;28;20057;-69
2022/02/02 22:43:50;;;;;;;11.10;6.72;;;;;;;;;;5014068;28;20049;-69
2022/02/02 22:46:20;;;;;;;9.27;6.40;;;;;;;;;;5008801;28;20060;-69
2022/02/02 22:48:46;;;;;;;11.13;6.95;;;;;;;;;;4994541;28;20120;-69
2022/02/02 22:51:13;;;;;;;9.52;6.88;;;;;;;;;;4994608;28;20108;-69
2022/02/02 22:53:39;;;;;;;11.32;7.03;;;;;;;;;;4994468;28;20058;-69
2022/02/02 22:56:06;;;;;;;8.63;6.50;;;;;;;;;;4994469;28;20054;-69
2022/02/02 22:58:33;;;;;;;9.38;6.88;;;;;;;;;;4994450;28;20108;-69
2022/02/02 23:01:00;;;;;;;8.30;6.32;;;;;;;;;;4994552;28;20046;-69
2022/02/02 23:03:29;;;;;;;8.15;6.32;;;;;;;;;;4994019;28;20564;-69
2022/02/02 23:05:59;;;;;;;11.80;7.18;;;;;;;;;;4994189;28;20560;-70
2022/02/02 23:08:29;;;;;;;9.32;7.57;;;;;;;;;;4994190;28;20096;-70
2022/02/02 23:10:56;;;;;;;12.57;8.57;;;;;;;;;;4994310;28;20505;-69
2022/02/02 23:13:23;;;;;;;13.77;8.70;;;;;;;;;;4994085;28;20109;-69
2022/02/02 23:16:06;;;;;;;11.57;8.98;;;;;;;;;;5011838;28;20516;-69
2022/02/02 23:18:36;;;;;;;12.65;8.60;;;;;;;;;;5013650;28;20543;-69
2022/02/02 23:21:07;;;;;;;12.88;9.30;;;;;;;;;;5013604;28;20096;-69
2022/02/02 23:23:46;;;;;;;11.63;8.73;;;;;;;;;;5013439;28;20050;-69
2022/02/02 23:26:13;;;;;;;10.77;8.52;;;;;;;;;;5013454;28;20493;-69
2022/02/02 23:28:45;;;;;;;11.93;8.70;;;;;;;;;;5013429;28;20464;-69
2022/02/02 23:31:14;;;;;;;11.65;8.88;;;;;;;;;;5013757;28;20050;-69
2022/02/02 23:33:42;;;;;;;13.18;9.50;;;;;;;;;;5012367;28;20088;-69
2022/02/02 23:36:09;;;;;;;12.82;9.45;;;;;;;;;;4993645;28;20058;-69
2022/02/02 23:38:36;;;;;;;12.55;9.50;;;;;;;;;;4993826;28;20117;-69
2022/02/02 23:43:39;;;;;;;11.82;9.23;;;;;;;;;;4993978;28;20062;-70
2022/02/02 23:46:10;;;;;;;12.60;8.70;;;;;;;;;;5012738;28;20057;-70
2022/02/02 23:48:48;;;;;;;10.77;8.57;;;;;;;;;;5013343;28;20494;-69
2022/02/02 23:51:24;;;;;;;10.10;7.47;;;;;;;;;;5013015;28;20050;-70
2022/02/02 23:53:52;;;;;;;12.70;8.45;;;;;;;;;;5011729;28;20464;-70
2022/02/02 23:59:02;;;;;;;11.50;7.95;;;;;;;;;;4993512;28;20050;-70
